sensor_id;sensor_type;location;lat;lon;timestamp;pressure;altitude;pressure_sealevel;temperature;humidity
47785;BME280;35233;55.686;37.848;2022-11-20T00:00:03;99860.06;;;7.24;55.31
47785;BME280;35233;55.686;37.848;2022-11-20T00:02:29;99859.28;;;7.19;55.09
47785;BME280;35233;55.686;37.848;2022-11-20T00:04:54;99860.97;;;7.23;54.91
47785;BME280;35233;55.686;37.848;2022-11-20T00:07:20;99858.41;;;7.17;54.94
47785;BME280;35233;55.686;37.848;2022-11-20T00:09:45;99862.78;;;7.18;55.00
47785;BME280;35233;55.686;37.848;2022-11-20T00:12:11;99865.41;;;7.19;55.56
47785;BME280;35233;55.686;37.848;2022-11-20T00:14:36;99865.41;;;7.19;55.34
47785;BME280;35233;55.686;37.848;2022-11-20T00:17:02;99869.72;;;7.23;55.30
47785;BME280;35233;55.686;37.848;2022-11-20T00:19:27;99854.06;;;7.14;55.24
47785;BME280;35233;55.686;37.848;2022-11-20T00:21:53;99863.63;;;7.20;55.62
47785;BME280;35233;55.686;37.848;2022-11-20T00:24:20;99857.53;;;7.16;55.44
47785;BME280;35233;55.686;37.848;2022-11-20T00:26:46;99869.78;;;7.17;55.69
47785;BME280;35233;55.686;37.848;2022-11-20T00:29:11;99869.81;;;7.14;55.20
47785;BME280;35233;55.686;37.848;2022-11-20T00:31:37;99862.91;;;7.07;55.59
47785;BME280;35233;55.686;37.848;2022-11-20T00:34:02;99865.47;;;7.12;55.31
47785;BME280;35233;55.686;37.848;2022-11-20T00:36:32;99863.78;;;7.08;55.00
47785;BME280;35233;55.686;37.848;2022-11-20T00:38:58;99867.22;;;7.13;55.41
47785;BME280;35233;55.686;37.848;2022-11-20T00:41:25;99870.78;;;7.07;55.91
47785;BME280;35233;55.686;37.848;2022-11-20T00:43:51;99867.25;;;7.08;55.42
47785;BME280;35233;55.686;37.848;2022-11-20T00:46:20;99860.22;;;7.12;55.68
47785;BME280;35233;55.686;37.848;2022-11-20T00:48:47;99854.16;;;7.03;55.11
47785;BME280;35233;55.686;37.848;2022-11-20T00:51:18;99863.75;;;7.09;55.95
47785;BME280;35233;55.686;37.848;2022-11-20T00:53:44;99862.91;;;7.07;55.57
47785;BME280;35233;55.686;37.848;2022-11-20T00:56:12;99871.59;;;7.12;55.60
47785;BME280;35233;55.686;37.848;2022-11-20T00:58:39;99863.69;;;7.14;54.80
47785;BME280;35233;55.686;37.848;2022-11-20T01:01:10;99863.78;;;7.08;54.90
47785;BME280;35233;55.686;37.848;2022-11-20T01:03:39;99866.31;;;7.14;55.75
47785;BME280;35233;55.686;37.848;2022-11-20T01:06:08;99856.75;;;7.07;55.54
47785;BME280;35233;55.686;37.848;2022-11-20T01:08:35;99851.56;;;7.02;55.22
47785;BME280;35233;55.686;37.848;2022-11-20T01:11:02;99849.00;;;6.96;55.61
47785;BME280;35233;55.686;37.848;2022-11-20T01:13:30;99861.16;;;7.06;55.86
47785;BME280;35233;55.686;37.848;2022-11-20T01:18:28;99858.56;;;7.05;55.52
47785;BME280;35233;55.686;37.848;2022-11-20T01:20:54;99854.19;;;7.02;55.78
47785;BME280;35233;55.686;37.848;2022-11-20T01:23:20;99857.66;;;7.07;55.46
47785;BME280;35233;55.686;37.848;2022-11-20T01:25:45;99862.03;;;7.03;55.95
47785;BME280;35233;55.686;37.848;2022-11-20T01:28:11;99831.59;;;6.86;55.79
47785;BME280;35233;55.686;37.848;2022-11-20T01:30:36;99854.19;;;7.02;55.53
47785;BME280;35233;55.686;37.848;2022-11-20T01:33:02;99858.66;;;6.95;55.69
47785;BME280;35233;55.686;37.848;2022-11-20T01:35:27;99871.72;;;7.00;55.33
47785;BME280;35233;55.686;37.848;2022-11-20T01:37:53;99839.44;;;6.89;56.05
47785;BME280;35233;55.686;37.848;2022-11-20T01:40:18;99870.00;;;6.99;55.81
47785;BME280;35233;55.686;37.848;2022-11-20T01:42:55;99865.66;;;6.93;55.64
47785;BME280;35233;55.686;37.848;2022-11-20T01:46:01;99860.34;;;6.99;55.75
47785;BME280;35233;55.686;37.848;2022-11-20T01:48:42;99877.00;;;6.97;56.32
47785;BME280;35233;55.686;37.848;2022-11-20T01:51:18;99879.63;;;6.98;55.81
47785;BME280;35233;55.686;37.848;2022-11-20T01:53:45;99873.53;;;6.92;55.84
47785;BME280;35233;55.686;37.848;2022-11-20T01:56:13;99870.03;;;6.96;55.43
47785;BME280;35233;55.686;37.848;2022-11-20T01:58:48;99873.53;;;6.92;55.87
47785;BME280;35233;55.686;37.848;2022-11-20T02:01:16;99878.75;;;6.96;55.73
47785;BME280;35233;55.686;37.848;2022-11-20T02:03:43;99885.78;;;6.96;55.65
47785;BME280;35233;55.686;37.848;2022-11-20T02:08:41;99894.50;;;6.98;55.51
47785;BME280;35233;55.686;37.848;2022-11-20T02:11:07;99892.78;;;6.94;56.12
47785;BME280;35233;55.686;37.848;2022-11-20T02:13:33;99878.06;;;6.77;56.02
47785;BME280;35233;55.686;37.848;2022-11-20T02:16:24;99899.88;;;6.87;55.98
47785;BME280;35233;55.686;37.848;2022-11-20T02:18:51;99898.06;;;6.94;55.62
47785;BME280;35233;55.686;37.848;2022-11-20T02:24:03;99900.72;;;6.92;55.94
47785;BME280;35233;55.686;37.848;2022-11-20T02:26:30;99898.94;;;6.93;55.24
47785;BME280;35233;55.686;37.848;2022-11-20T02:28:56;99905.09;;;6.90;56.03
47785;BME280;35233;55.686;37.848;2022-11-20T02:31:23;99910.31;;;6.92;55.42
47785;BME280;35233;55.686;37.848;2022-11-20T02:33:55;99915.59;;;6.90;55.82
47785;BME280;35233;55.686;37.848;2022-11-20T02:36:21;99909.41;;;6.94;56.03
47785;BME280;35233;55.686;37.848;2022-11-20T02:38:48;99907.75;;;6.87;55.79
47785;BME280;35233;55.686;37.848;2022-11-20T02:41:14;99914.72;;;6.88;55.87
47785;BME280;35233;55.686;37.848;2022-11-20T02:43:40;99909.50;;;6.85;56.03
47785;BME280;35233;55.686;37.848;2022-11-20T02:46:07;99919.09;;;6.92;56.14
47785;BME280;35233;55.686;37.848;2022-11-20T02:48:32;99916.47;;;6.91;55.72
47785;BME280;35233;55.686;37.848;2022-11-20T02:50:58;99911.28;;;6.85;55.96
47785;BME280;35233;55.686;37.848;2022-11-20T02:53:23;99921.72;;;6.89;55.48
47785;BME280;35233;55.686;37.848;2022-11-20T02:55:49;99921.72;;;6.91;55.76
47785;BME280;35233;55.686;37.848;2022-11-20T02:58:14;99926.09;;;6.89;55.42
47785;BME280;35233;55.686;37.848;2022-11-20T03:00:39;99922.66;;;6.84;55.57
47785;BME280;35233;55.686;37.848;2022-11-20T03:03:05;99915.69;;;6.79;55.96
47785;BME280;35233;55.686;37.848;2022-11-20T03:05:30;99914.78;;;6.82;55.68
47785;BME280;35233;55.686;37.848;2022-11-20T03:07:56;99927.00;;;6.86;56.11
47785;BME280;35233;55.686;37.848;2022-11-20T03:10:21;99917.41;;;6.84;55.60
47785;BME280;35233;55.686;37.848;2022-11-20T03:12:47;99914.78;;;6.82;55.81
47785;BME280;35233;55.686;37.848;2022-11-20T03:15:13;99916.53;;;6.83;55.33
47785;BME280;35233;55.686;37.848;2022-11-20T03:17:38;99924.41;;;6.83;55.20
47785;BME280;35233;55.686;37.848;2022-11-20T03:20:04;99918.31;;;6.81;55.23
47785;BME280;35233;55.686;37.848;2022-11-20T03:22:31;99921.81;;;6.77;55.51
47785;BME280;35233;55.686;37.848;2022-11-20T03:24:56;99938.47;;;6.76;56.01
47785;BME280;35233;55.686;37.848;2022-11-20T03:27:22;99931.44;;;6.81;55.47
47785;BME280;35233;55.686;37.848;2022-11-20T03:29:47;99934.91;;;6.85;55.31
47785;BME280;35233;55.686;37.848;2022-11-20T03:32:12;99941.94;;;6.79;55.29
47785;BME280;35233;55.686;37.848;2022-11-20T03:34:38;99935.81;;;6.79;55.32
47785;BME280;35233;55.686;37.848;2022-11-20T03:37:04;99948.06;;;6.82;55.11
47785;BME280;35233;55.686;37.848;2022-11-20T03:39:29;99941.91;;;6.83;55.61
47785;BME280;35233;55.686;37.848;2022-11-20T03:41:54;99935.81;;;6.79;55.18
47785;BME280;35233;55.686;37.848;2022-11-20T03:44:21;99927.16;;;6.69;55.61
47785;BME280;35233;55.686;37.848;2022-11-20T03:46:46;99931.50;;;6.73;55.64
47785;BME280;35233;55.686;37.848;2022-11-20T03:49:12;99944.63;;;6.75;55.03
47785;BME280;35233;55.686;37.848;2022-11-20T03:51:37;99943.66;;;6.80;55.13
47785;BME280;35233;55.686;37.848;2022-11-20T03:54:05;99948.09;;;6.78;55.39
47785;BME280;35233;55.686;37.848;2022-11-20T03:56:33;99948.91;;;6.80;55.30
47785;BME280;35233;55.686;37.848;2022-11-20T03:58:59;99948.97;;;6.74;55.72
47785;BME280;35233;55.686;37.848;2022-11-20T04:01:29;99962.09;;;6.79;55.05
47785;BME280;35233;55.686;37.848;2022-11-20T04:03:56;99958.59;;;6.77;55.46
47785;BME280;35233;55.686;37.848;2022-11-20T04:06:26;99956.81;;;6.77;55.08
47785;BME280;35233;55.686;37.848;2022-11-20T04:08:57;99955.13;;;6.75;55.24
47785;BME280;35233;55.686;37.848;2022-11-20T04:11:24;99963.00;;;6.75;55.40
47785;BME280;35233;55.686;37.848;2022-11-20T04:13:55;99960.34;;;6.78;54.69
47785;BME280;35233;55.686;37.848;2022-11-20T04:16:22;99957.75;;;6.75;54.87
47785;BME280;35233;55.686;37.848;2022-11-20T04:19:00;99956.03;;;6.69;55.28
47785;BME280;35233;55.686;37.848;2022-11-20T04:21:26;99968.22;;;6.76;54.82
47785;BME280;35233;55.686;37.848;2022-11-20T04:23:52;99976.97;;;6.78;54.52
47785;BME280;35233;55.686;37.848;2022-11-20T04:26:19;99970.84;;;6.78;55.07
47785;BME280;35233;55.686;37.848;2022-11-20T04:28:44;99961.25;;;6.71;54.97
47785;BME280;35233;55.686;37.848;2022-11-20T04:31:12;99975.19;;;6.80;54.73
47785;BME280;35233;55.686;37.848;2022-11-20T04:33:38;99983.09;;;6.79;55.15
47785;BME280;35233;55.686;37.848;2022-11-20T04:36:07;99986.59;;;6.76;54.42
47785;BME280;35233;55.686;37.848;2022-11-20T04:38:35;99994.47;;;6.79;54.37
47785;BME280;35233;55.686;37.848;2022-11-20T04:41:03;99983.97;;;6.76;54.78
47785;BME280;35233;55.686;37.848;2022-11-20T04:43:29;99998.88;;;6.76;55.10
47785;BME280;35233;55.686;37.848;2022-11-20T04:45:56;100007.59;;;6.81;54.60
47785;BME280;35233;55.686;37.848;2022-11-20T04:48:23;100008.47;;;6.78;54.78
47785;BME280;35233;55.686;37.848;2022-11-20T04:50:49;100007.59;;;6.79;54.52
47785;BME280;35233;55.686;37.848;2022-11-20T04:53:15;100012.84;;;6.79;54.45
47785;BME280;35233;55.686;37.848;2022-11-20T04:55:40;100008.47;;;6.77;54.66
47785;BME280;35233;55.686;37.848;2022-11-20T04:58:06;100012.00;;;6.76;54.78
47785;BME280;35233;55.686;37.848;2022-11-20T05:00:31;100009.41;;;6.68;54.78
47785;BME280;35233;55.686;37.848;2022-11-20T05:02:57;100017.25;;;6.74;54.85
47785;BME280;35233;55.686;37.848;2022-11-20T05:05:22;100006.81;;;6.62;54.66
47785;BME280;35233;55.686;37.848;2022-11-20T05:07:48;100017.28;;;6.73;54.58
47785;BME280;35233;55.686;37.848;2022-11-20T05:10:13;100017.25;;;6.74;54.39
47785;BME280;35233;55.686;37.848;2022-11-20T05:12:39;100023.41;;;6.69;54.54
47785;BME280;35233;55.686;37.848;2022-11-20T05:15:05;100036.53;;;6.75;54.50
47785;BME280;35233;55.686;37.848;2022-11-20T05:17:30;100036.50;;;6.73;54.47
47785;BME280;35233;55.686;37.848;2022-11-20T05:19:56;100037.41;;;6.71;54.28
47785;BME280;35233;55.686;37.848;2022-11-20T05:22:21;100030.41;;;6.73;54.23
47785;BME280;35233;55.686;37.848;2022-11-20T05:24:47;100039.97;;;6.77;54.13
47785;BME280;35233;55.686;37.848;2022-11-20T05:27:12;100052.25;;;6.78;54.12
47785;BME280;35233;55.686;37.848;2022-11-20T05:29:38;100055.75;;;6.77;54.23
47785;BME280;35233;55.686;37.848;2022-11-20T05:32:03;100048.75;;;6.74;54.37
47785;BME280;35233;55.686;37.848;2022-11-20T05:34:31;100053.13;;;6.74;54.74
47785;BME280;35233;55.686;37.848;2022-11-20T05:36:57;100051.41;;;6.71;54.74
47785;BME280;35233;55.686;37.848;2022-11-20T05:39:22;100054.91;;;6.75;54.48
47785;BME280;35233;55.686;37.848;2022-11-20T05:41:47;100057.50;;;6.76;54.40
47785;BME280;35233;55.686;37.848;2022-11-20T05:44:33;100059.25;;;6.74;54.46
47785;BME280;35233;55.686;37.848;2022-11-20T05:46:58;100057.53;;;6.75;54.00
47785;BME280;35233;55.686;37.848;2022-11-20T05:49:24;100039.19;;;6.64;54.21
47785;BME280;35233;55.686;37.848;2022-11-20T05:51:49;100067.13;;;6.79;54.40
47785;BME280;35233;55.686;37.848;2022-11-20T05:54:15;100067.97;;;6.83;54.42
47785;BME280;35233;55.686;37.848;2022-11-20T05:56:40;100081.13;;;6.81;53.94
47785;BME280;35233;55.686;37.848;2022-11-20T05:59:06;100088.09;;;6.80;54.06
47785;BME280;35233;55.686;37.848;2022-11-20T06:01:31;100092.47;;;6.80;54.41
47785;BME280;35233;55.686;37.848;2022-11-20T06:03:57;100089.00;;;6.79;54.26
47785;BME280;35233;55.686;37.848;2022-11-20T06:06:22;100088.97;;;6.83;53.93
47785;BME280;35233;55.686;37.848;2022-11-20T06:08:48;100094.22;;;6.83;54.44
47785;BME280;35233;55.686;37.848;2022-11-20T06:11:14;100098.59;;;6.84;53.55
47785;BME280;35233;55.686;37.848;2022-11-20T06:13:41;100105.63;;;6.82;53.88
47785;BME280;35233;55.686;37.848;2022-11-20T06:16:07;100091.63;;;6.81;54.09
47785;BME280;35233;55.686;37.848;2022-11-20T06:18:32;100102.06;;;6.89;53.76
47785;BME280;35233;55.686;37.848;2022-11-20T06:21:12;100105.56;;;6.89;53.45
47785;BME280;35233;55.686;37.848;2022-11-20T06:23:38;100102.09;;;6.83;53.60
47785;BME280;35233;55.686;37.848;2022-11-20T06:26:11;100123.03;;;6.92;53.69
47785;BME280;35233;55.686;37.848;2022-11-20T06:28:38;100123.94;;;6.89;53.54
47785;BME280;35233;55.686;37.848;2022-11-20T06:31:05;100128.31;;;6.90;53.86
47785;BME280;35233;55.686;37.848;2022-11-20T06:33:30;100123.94;;;6.86;53.44
47785;BME280;35233;55.686;37.848;2022-11-20T06:36:00;100134.44;;;6.91;53.49
47785;BME280;35233;55.686;37.848;2022-11-20T06:38:27;100137.94;;;6.96;53.58
47785;BME280;35233;55.686;37.848;2022-11-20T06:40:53;100141.41;;;6.95;53.58
47785;BME280;35233;55.686;37.848;2022-11-20T06:43:23;100138.81;;;6.89;53.39
47785;BME280;35233;55.686;37.848;2022-11-20T06:45:58;100150.22;;;6.88;53.77
47785;BME280;35233;55.686;37.848;2022-11-20T06:48:26;100137.09;;;6.85;53.42
47785;BME280;35233;55.686;37.848;2022-11-20T06:50:51;100131.81;;;6.92;53.70
47785;BME280;35233;55.686;37.848;2022-11-20T06:53:17;100137.97;;;6.90;53.36
47785;BME280;35233;55.686;37.848;2022-11-20T06:55:44;100138.81;;;6.93;53.27
47785;BME280;35233;55.686;37.848;2022-11-20T06:58:10;100131.81;;;6.95;53.34
47785;BME280;35233;55.686;37.848;2022-11-20T07:00:35;100141.41;;;6.95;53.09
47785;BME280;35233;55.686;37.848;2022-11-20T07:03:04;100133.53;;;6.96;53.13
47785;BME280;35233;55.686;37.848;2022-11-20T07:05:30;100134.44;;;6.94;53.46
47785;BME280;35233;55.686;37.848;2022-11-20T07:07:57;100130.03;;;6.99;52.71
47785;BME280;35233;55.686;37.848;2022-11-20T07:10:22;100130.88;;;7.02;52.90
47785;BME280;35233;55.686;37.848;2022-11-20T07:12:52;100131.75;;;7.00;53.07
47785;BME280;35233;55.686;37.848;2022-11-20T07:15:22;100120.38;;;6.99;53.10
47785;BME280;35233;55.686;37.848;2022-11-20T07:17:48;100125.59;;;7.01;53.00
47785;BME280;35233;55.686;37.848;2022-11-20T07:20:14;100141.38;;;7.04;52.41
47785;BME280;35233;55.686;37.848;2022-11-20T07:22:39;100147.53;;;7.01;52.75
47785;BME280;35233;55.686;37.848;2022-11-20T07:25:06;100156.28;;;7.02;52.83
47785;BME280;35233;55.686;37.848;2022-11-20T07:27:31;100146.59;;;7.09;53.04
47785;BME280;35233;55.686;37.848;2022-11-20T07:29:57;100134.31;;;7.09;52.82
47785;BME280;35233;55.686;37.848;2022-11-20T07:32:23;100122.97;;;7.07;52.87
47785;BME280;35233;55.686;37.848;2022-11-20T07:34:48;100112.44;;;7.10;52.48
47785;BME280;35233;55.686;37.848;2022-11-20T07:37:15;100131.72;;;7.06;52.43
47785;BME280;35233;55.686;37.848;2022-11-20T07:39:41;100143.94;;;7.12;52.29
47785;BME280;35233;55.686;37.848;2022-11-20T07:42:07;100143.94;;;7.16;52.38
47785;BME280;35233;55.686;37.848;2022-11-20T07:44:32;100150.94;;;7.16;52.13
47785;BME280;35233;55.686;37.848;2022-11-20T07:46:58;100141.31;;;7.13;52.56
47785;BME280;35233;55.686;37.848;2022-11-20T07:49:23;100136.94;;;7.14;52.62
47785;BME280;35233;55.686;37.848;2022-11-20T07:51:52;100151.75;;;7.22;52.19
47785;BME280;35233;55.686;37.848;2022-11-20T07:54:21;100142.16;;;7.21;52.39
47785;BME280;35233;55.686;37.848;2022-11-20T07:56:47;100150.03;;;7.21;51.88
47785;BME280;35233;55.686;37.848;2022-11-20T07:59:13;100149.09;;;7.27;52.29
47785;BME280;35233;55.686;37.848;2022-11-20T08:01:39;100157.00;;;7.25;51.96
47785;BME280;35233;55.686;37.848;2022-11-20T08:04:05;100168.41;;;7.23;52.02
47785;BME280;35233;55.686;37.848;2022-11-20T08:06:30;100141.34;;;7.09;52.15
47785;BME280;35233;55.686;37.848;2022-11-20T08:08:56;100151.75;;;7.21;51.71
47785;BME280;35233;55.686;37.848;2022-11-20T08:11:22;100158.78;;;7.22;51.73
47785;BME280;35233;55.686;37.848;2022-11-20T08:14:05;100177.16;;;7.25;52.12
47785;BME280;35233;55.686;37.848;2022-11-20T08:16:42;100175.44;;;7.18;52.01
47785;BME280;35233;55.686;37.848;2022-11-20T08:19:08;100168.41;;;7.20;51.72
47785;BME280;35233;55.686;37.848;2022-11-20T08:21:34;100173.66;;;7.23;51.67
47785;BME280;35233;55.686;37.848;2022-11-20T08:23:59;100177.16;;;7.23;52.00
47785;BME280;35233;55.686;37.848;2022-11-20T08:26:25;100164.03;;;7.20;51.91
47785;BME280;35233;55.686;37.848;2022-11-20T08:28:58;100178.00;;;7.29;51.94
47785;BME280;35233;55.686;37.848;2022-11-20T08:31:25;100187.63;;;7.30;52.17
47785;BME280;35233;55.686;37.848;2022-11-20T08:33:50;100183.25;;;7.33;51.79
47785;BME280;35233;55.686;37.848;2022-11-20T08:36:16;100182.34;;;7.33;51.61
47785;BME280;35233;55.686;37.848;2022-11-20T08:38:47;100176.25;;;7.28;50.72
47785;BME280;35233;55.686;37.848;2022-11-20T08:41:13;100161.44;;;7.17;50.30
47785;BME280;35233;55.686;37.848;2022-11-20T08:44:02;100174.53;;;7.23;50.14
47785;BME280;35233;55.686;37.848;2022-11-20T08:46:35;100170.13;;;7.24;49.82
47785;BME280;35233;55.686;37.848;2022-11-20T08:49:10;100177.16;;;7.25;49.92
47785;BME280;35233;55.686;37.848;2022-11-20T08:51:36;100182.44;;;7.19;49.44
47785;BME280;35233;55.686;37.848;2022-11-20T08:54:03;100197.31;;;7.18;49.22
47785;BME280;35233;55.686;37.848;2022-11-20T08:56:29;100185.13;;;7.07;49.41
47785;BME280;35233;55.686;37.848;2022-11-20T08:58:54;100200.00;;;7.14;49.38
47785;BME280;35233;55.686;37.848;2022-11-20T09:01:21;100217.53;;;7.10;48.79
47785;BME280;35233;55.686;37.848;2022-11-20T09:03:47;100225.34;;;7.18;49.83
47785;BME280;35233;55.686;37.848;2022-11-20T09:06:13;100232.41;;;7.16;49.37
47785;BME280;35233;55.686;37.848;2022-11-20T09:08:39;100237.66;;;7.13;49.99
47785;BME280;35233;55.686;37.848;2022-11-20T09:11:05;100218.38;;;7.09;49.46
47785;BME280;35233;55.686;37.848;2022-11-20T09:13:32;100236.75;;;7.15;49.31
47785;BME280;35233;55.686;37.848;2022-11-20T09:16:01;100239.41;;;7.11;48.86
47785;BME280;35233;55.686;37.848;2022-11-20T09:18:27;100230.66;;;7.10;48.99
47785;BME280;35233;55.686;37.848;2022-11-20T09:21:01;100242.91;;;7.14;49.16
47785;BME280;35233;55.686;37.848;2022-11-20T09:23:31;100244.69;;;7.08;48.91
47785;BME280;35233;55.686;37.848;2022-11-20T09:25:57;100242.91;;;7.10;48.58
47785;BME280;35233;55.686;37.848;2022-11-20T09:28:25;100244.69;;;7.11;48.78
47785;BME280;35233;55.686;37.848;2022-11-20T09:30:51;100262.19;;;7.10;49.31
47785;BME280;35233;55.686;37.848;2022-11-20T09:33:17;100267.47;;;7.07;49.08
47785;BME280;35233;55.686;37.848;2022-11-20T09:35:43;100254.31;;;7.06;48.89
47785;BME280;35233;55.686;37.848;2022-11-20T09:38:10;100270.94;;;7.09;48.93
47785;BME280;35233;55.686;37.848;2022-11-20T09:40:39;100268.38;;;7.01;49.12
47785;BME280;35233;55.686;37.848;2022-11-20T09:43:29;100277.97;;;7.07;49.11
47785;BME280;35233;55.686;37.848;2022-11-20T09:55:01;100278.00;;;7.04;49.04
47785;BME280;35233;55.686;37.848;2022-11-20T09:57:35;100275.31;;;7.09;49.14
47785;BME280;35233;55.686;37.848;2022-11-20T10:00:04;100277.09;;;7.02;49.15
47785;BME280;35233;55.686;37.848;2022-11-20T10:05:25;100278.84;;;7.06;49.27
47785;BME280;35233;55.686;37.848;2022-11-20T10:08:15;100276.22;;;7.08;48.64
47785;BME280;35233;55.686;37.848;2022-11-20T10:10:45;100277.09;;;7.02;48.57
47785;BME280;35233;55.686;37.848;2022-11-20T10:13:45;100285.84;;;7.07;49.14
47785;BME280;35233;55.686;37.848;2022-11-20T10:24:34;100298.16;;;6.91;48.78
47785;BME280;35233;55.686;37.848;2022-11-20T10:30:13;100281.53;;;6.91;49.19
47785;BME280;35233;55.686;37.848;2022-11-20T10:32:45;100291.13;;;6.99;49.24
47785;BME280;35233;55.686;37.848;2022-11-20T10:35:25;100289.41;;;6.88;49.57
47785;BME280;35233;55.686;37.848;2022-11-20T10:37:57;100296.38;;;6.95;49.65
47785;BME280;35233;55.686;37.848;2022-11-20T10:40:42;100296.41;;;6.89;49.03
47785;BME280;35233;55.686;37.848;2022-11-20T10:43:34;100301.63;;;6.95;49.23
47785;BME280;35233;55.686;37.848;2022-11-20T10:48:29;100280.16;;;12.28;57.72
47785;BME280;35233;55.686;37.848;2022-11-20T10:51:31;100291.84;;;13.19;55.75
47785;BME280;35233;55.686;37.848;2022-11-20T10:54:30;100291.75;;;13.81;53.63
47785;BME280;35233;55.686;37.848;2022-11-20T10:57:07;100281.94;;;14.12;52.56
47785;BME280;35233;55.686;37.848;2022-11-20T11:00:07;100301.97;;;14.48;51.31
47785;BME280;35233;55.686;37.848;2022-11-20T11:02:51;100287.78;;;14.75;49.87
47785;BME280;35233;55.686;37.848;2022-11-20T11:07:58;100278.38;;;15.14;48.13
47785;BME280;35233;55.686;37.848;2022-11-20T11:12:54;100303.97;;;15.42;46.89
47785;BME280;35233;55.686;37.848;2022-11-20T11:15:29;100294.09;;;15.46;46.50
47785;BME280;35233;55.686;37.848;2022-11-20T11:17:55;100282.00;;;15.59;45.41
47785;BME280;35233;55.686;37.848;2022-11-20T11:20:23;100299.41;;;15.69;44.93
47785;BME280;35233;55.686;37.848;2022-11-20T11:22:55;100296.75;;;15.69;44.82
47785;BME280;35233;55.686;37.848;2022-11-20T11:25:35;100303.22;;;15.86;44.57
47785;BME280;35233;55.686;37.848;2022-11-20T11:28:04;100297.91;;;15.86;44.29
47785;BME280;35233;55.686;37.848;2022-11-20T11:30:41;100294.91;;;15.93;43.58
47785;BME280;35233;55.686;37.848;2022-11-20T11:35:55;100285.28;;;16.11;42.88
47785;BME280;35233;55.686;37.848;2022-11-20T11:38:43;100288.66;;;16.16;42.76
47785;BME280;35233;55.686;37.848;2022-11-20T11:41:14;100284.31;;;16.14;42.28
47785;BME280;35233;55.686;37.848;2022-11-20T11:43:51;100288.34;;;16.02;42.64
47785;BME280;35233;55.686;37.848;2022-11-20T11:46:36;100286.41;;;16.05;42.39
47785;BME280;35233;55.686;37.848;2022-11-20T11:51:57;100288.91;;;16.52;41.49
47785;BME280;35233;55.686;37.848;2022-11-20T11:57:00;100288.44;;;16.63;41.67
47785;BME280;35233;55.686;37.848;2022-11-20T12:02:40;100289.84;;;16.72;41.59
47785;BME280;35233;55.686;37.848;2022-11-20T12:05:22;100300.22;;;16.80;41.70
47785;BME280;35233;55.686;37.848;2022-11-20T12:15:47;100294.00;;;16.59;41.63
47785;BME280;35233;55.686;37.848;2022-11-20T12:18:18;100291.16;;;16.41;42.01
47785;BME280;35233;55.686;37.848;2022-11-20T12:21:11;100299.34;;;16.37;42.17
47785;BME280;35233;55.686;37.848;2022-11-20T12:29:34;100292.91;;;16.42;41.40
47785;BME280;35233;55.686;37.848;2022-11-20T12:35:00;100298.91;;;16.47;41.09
47785;BME280;35233;55.686;37.848;2022-11-20T12:43:20;100303.94;;;16.55;41.29
47785;BME280;35233;55.686;37.848;2022-11-20T12:46:17;100299.38;;;16.57;41.05
47785;BME280;35233;55.686;37.848;2022-11-20T12:49:12;100296.72;;;16.57;40.78
47785;BME280;35233;55.686;37.848;2022-11-20T12:51:53;100308.06;;;16.62;40.85
47785;BME280;35233;55.686;37.848;2022-11-20T12:54:53;100303.44;;;16.66;40.80
47785;BME280;35233;55.686;37.848;2022-11-20T13:05:31;100312.03;;;16.72;40.63
47785;BME280;35233;55.686;37.848;2022-11-20T13:08:00;100322.63;;;16.75;40.39
47785;BME280;35233;55.686;37.848;2022-11-20T13:10:43;100323.44;;;16.78;40.50
47785;BME280;35233;55.686;37.848;2022-11-20T13:13:16;100319.94;;;16.75;40.54
47785;BME280;35233;55.686;37.848;2022-11-20T13:16:00;100332.06;;;16.84;40.49
47785;BME280;35233;55.686;37.848;2022-11-20T13:18:38;100319.44;;;16.88;39.95
47785;BME280;35233;55.686;37.848;2022-11-20T13:21:21;100321.03;;;16.92;40.09
47785;BME280;35233;55.686;37.848;2022-11-20T13:23:48;100321.69;;;16.97;40.11
47785;BME280;35233;55.686;37.848;2022-11-20T13:26:19;100313.03;;;16.92;40.40
47785;BME280;35233;55.686;37.848;2022-11-20T13:28:46;100327.03;;;16.97;40.29
47785;BME280;35233;55.686;37.848;2022-11-20T13:31:35;100342.19;;;16.96;40.16
47785;BME280;35233;55.686;37.848;2022-11-20T13:34:04;100347.03;;;17.07;39.71
47785;BME280;35233;55.686;37.848;2022-11-20T13:36:31;100326.97;;;16.98;40.15
47785;BME280;35233;55.686;37.848;2022-11-20T13:38:58;100336.13;;;17.13;39.54
47785;BME280;35233;55.686;37.848;2022-11-20T13:41:33;100339.03;;;17.07;39.58
47785;BME280;35233;55.686;37.848;2022-11-20T13:44:12;100338.13;;;17.08;38.88
47785;BME280;35233;55.686;37.848;2022-11-20T13:46:44;100343.19;;;17.14;38.72
47785;BME280;35233;55.686;37.848;2022-11-20T13:49:18;100342.25;;;17.15;38.56
47785;BME280;35233;55.686;37.848;2022-11-20T13:51:46;100329.84;;;17.14;38.28
47785;BME280;35233;55.686;37.848;2022-11-20T14:00:14;100356.94;;;17.26;38.52
47785;BME280;35233;55.686;37.848;2022-11-20T14:02:41;100354.41;;;17.23;38.34
47785;BME280;35233;55.686;37.848;2022-11-20T14:05:22;100357.78;;;17.26;38.49
47785;BME280;35233;55.686;37.848;2022-11-20T14:07:50;100362.94;;;17.31;38.44
47785;BME280;35233;55.686;37.848;2022-11-20T14:10:28;100363.00;;;17.29;38.56
47785;BME280;35233;55.686;37.848;2022-11-20T14:12:54;100353.13;;;17.31;38.68
47785;BME280;35233;55.686;37.848;2022-11-20T14:17:52;100362.13;;;17.29;38.78
47785;BME280;35233;55.686;37.848;2022-11-20T14:20:18;100362.78;;;17.34;38.62
47785;BME280;35233;55.686;37.848;2022-11-20T14:22:49;100371.66;;;17.34;38.85
47785;BME280;35233;55.686;37.848;2022-11-20T14:27:44;100377.88;;;17.35;38.90
47785;BME280;35233;55.686;37.848;2022-11-20T14:30:43;100367.09;;;17.36;38.63
47785;BME280;35233;55.686;37.848;2022-11-20T14:33:10;100361.66;;;17.39;38.63
47785;BME280;35233;55.686;37.848;2022-11-20T14:35:51;100364.19;;;17.42;38.56